Time;durP1;ratioP1;P1;durP2;ratioP2;P2;SDS_P1;SDS_P2;PMS_P1;PMS_P2;Temp;Humidity;BMP_temperature;BMP_pressure;BME280_temperature;BME280_humidity;BME280_pressure;Samples;Min_cycle;Max_cycle;Signal;HPM_P1;HPM_P2
2023/12/05 00:01:10;;;;;;;4.43;4.03;;;15.70;39.40;;;;;;5016876;28;20224;-80
2023/12/05 00:03:37;;;;;;;4.78;4.38;;;15.70;39.40;;;;;;5000297;28;20212;-80
2023/12/05 00:09:40;;;;;;;4.57;4.18;;;15.70;39.40;;;;;;5017310;28;20216;-80
2023/12/05 00:12:08;;;;;;;4.80;4.40;;;15.70;39.30;;;;;;5017764;28;20570;-80
2023/12/05 00:14:35;;;;;;;4.43;4.03;;;15.70;39.30;;;;;;5017526;28;20205;-80
2023/12/05 00:17:02;;;;;;;4.50;4.10;;;15.70;39.30;;;;;;5015865;28;20220;-80
2023/12/05 00:19:29;;;;;;;4.35;3.95;;;15.70;39.30;;;;;;5015191;28;20312;-81
2023/12/05 00:21:56;;;;;;;4.97;4.47;;;15.70;39.40;;;;;;5015914;28;20200;-81
2023/12/05 00:24:23;;;;;;;4.53;4.13;;;15.70;39.40;;;;;;5015879;28;20203;-81
2023/12/05 00:26:51;;;;;;;4.82;4.32;;;15.70;39.40;;;;;;5016484;28;20223;-81
2023/12/05 00:29:18;;;;;;;4.95;4.45;;;15.70;39.50;;;;;;5016339;28;20204;-80
2023/12/05 00:31:45;;;;;;;4.60;4.20;;;15.70;39.60;;;;;;5000562;28;20651;-80
2023/12/05 00:34:12;;;;;;;4.50;4.10;;;15.70;39.50;;;;;;5016982;28;20200;-80
2023/12/05 00:36:39;;;;;;;4.22;3.83;;;15.70;39.50;;;;;;5016445;28;20216;-81
2023/12/05 00:39:06;;;;;;;4.63;4.22;;;15.70;39.50;;;;;;5000457;28;20193;-80
2023/12/05 00:41:34;;;;;;;4.60;4.20;;;15.70;39.50;;;;;;5016819;28;20216;-80
2023/12/05 00:44:02;;;;;;;4.45;4.05;;;15.70;39.40;;;;;;5017639;28;20243;-80
2023/12/05 00:46:29;;;;;;;4.57;4.18;;;15.80;39.50;;;;;;5016251;28;20786;-82
2023/12/05 00:48:56;;;;;;;4.78;4.28;;;15.80;39.50;;;;;;5016393;28;20216;-80
2023/12/05 00:51:23;;;;;;;4.60;4.10;;;15.80;39.40;;;;;;5016272;28;20228;-80
2023/12/05 00:53:50;;;;;;;3.92;3.63;;;15.80;39.40;;;;;;4999895;28;20675;-80
2023/12/05 00:56:18;;;;;;;4.40;4.00;;;15.80;39.40;;;;;;5000111;28;20247;-81
2023/12/05 00:58:46;;;;;;;4.07;3.78;;;15.80;39.40;;;;;;5016089;28;20201;-80
2023/12/05 01:01:14;;;;;;;3.85;3.55;;;15.70;39.30;;;;;;5016125;28;20311;-81
2023/12/05 01:03:41;;;;;;;4.20;3.80;;;15.70;40.00;;;;;;4970199;28;1107122;-80
2023/12/05 01:06:09;;;;;;;4.05;3.70;;;15.70;39.40;;;;;;5011026;28;20683;-80
2023/12/05 01:08:35;;;;;;;3.90;3.38;;;15.70;39.40;;;;;;5017225;28;20195;-80
2023/12/05 01:13:44;;;;;;;4.20;3.80;;;15.80;39.40;;;;;;4991618;28;20652;-83
2023/12/05 01:16:12;;;;;;;3.67;3.38;;;15.80;39.40;;;;;;4992965;28;20277;-83
2023/12/05 01:18:40;;;;;;;3.90;3.60;;;15.80;39.40;;;;;;4976675;28;20190;-83
2023/12/05 01:21:08;;;;;;;3.88;3.58;;;15.80;39.40;;;;;;4977063;28;20708;-82
2023/12/05 01:23:34;;;;;;;3.80;3.50;;;15.80;39.50;;;;;;4976859;28;20206;-82
2023/12/05 01:26:02;;;;;;;3.42;3.13;;;15.80;39.50;;;;;;4977105;28;20244;-82
2023/12/05 01:28:29;;;;;;;3.60;3.30;;;15.70;39.40;;;;;;4977758;28;20190;-82
2023/12/05 01:30:56;;;;;;;3.38;3.17;;;15.70;39.50;;;;;;4992547;28;20679;-82
2023/12/05 01:33:23;;;;;;;3.75;3.45;;;15.70;39.50;;;;;;4976268;28;20545;-82
2023/12/05 01:35:51;;;;;;;3.33;3.00;;;15.70;39.50;;;;;;4993093;28;20222;-82
2023/12/05 01:38:19;;;;;;;3.33;3.08;;;15.70;39.60;;;;;;4976091;28;20575;-82
2023/12/05 01:40:46;;;;;;;3.53;3.22;;;15.70;39.60;;;;;;4976407;28;20747;-82
2023/12/05 01:43:13;;;;;;;3.50;3.20;;;15.70;39.60;;;;;;4977257;28;20225;-83
2023/12/05 01:45:40;;;;;;;3.90;3.38;;;15.70;39.60;;;;;;4976173;28;20222;-82
2023/12/05 01:48:08;;;;;;;4.85;3.40;;;15.70;39.60;;;;;;4976132;28;20293;-82
2023/12/05 01:50:35;;;;;;;3.13;2.83;;;15.70;39.50;;;;;;4977241;28;20205;-83
2023/12/05 01:53:05;;;;;;;3.30;3.00;;;15.70;39.50;;;;;;4961699;28;20202;-82
2023/12/05 01:55:32;;;;;;;3.33;3.03;;;15.70;39.60;;;;;;4976982;28;20202;-82
2023/12/05 01:57:59;;;;;;;3.03;2.83;;;15.70;39.50;;;;;;4976999;28;20202;-82
2023/12/05 02:00:27;;;;;;;3.40;3.10;;;15.70;39.60;;;;;;4992403;28;20221;-82
2023/12/05 02:02:55;;;;;;;3.20;3.00;;;15.70;39.60;;;;;;4976149;28;20233;-82
2023/12/05 02:05:22;;;;;;;2.97;2.70;;;15.70;39.60;;;;;;4991824;28;20202;-82
2023/12/05 02:07:50;;;;;;;3.00;2.75;;;15.70;39.60;;;;;;4976489;28;20206;-82
2023/12/05 02:10:18;;;;;;;3.00;2.80;;;15.70;39.60;;;;;;4991759;28;20194;-82
2023/12/05 02:12:46;;;;;;;3.25;3.03;;;15.70;39.60;;;;;;4975828;28;20300;-82
2023/12/05 02:15:13;;;;;;;3.25;2.97;;;15.70;39.60;;;;;;4977852;28;20194;-82
2023/12/05 02:17:45;;;;;;;2.78;2.58;;;15.70;39.70;;;;;;4980659;28;20226;-82
2023/12/05 02:20:20;;;;;;;3.25;2.95;;;15.70;39.70;;;;;;4981241;28;20210;-82
2023/12/05 02:23:08;;;;;;;2.85;2.65;;;15.60;39.60;;;;;;4996237;28;20662;-82
2023/12/05 02:25:44;;;;;;;2.55;2.40;;;15.70;39.60;;;;;;4973229;28;20206;-82
2023/12/05 02:28:12;;;;;;;3.20;2.90;;;15.70;39.60;;;;;;4991526;28;20264;-82
2023/12/05 02:30:39;;;;;;;2.85;2.65;;;15.70;39.60;;;;;;4975097;28;20230;-83
2023/12/05 02:33:06;;;;;;;2.90;2.70;;;15.70;39.50;;;;;;4976087;28;20206;-82
2023/12/05 02:35:33;;;;;;;2.60;2.40;;;15.70;39.60;;;;;;4976350;28;20202;-82
2023/12/05 02:38:05;;;;;;;2.70;2.50;;;15.70;39.60;;;;;;4975772;28;20202;-82
2023/12/05 02:40:35;;;;;;;2.45;2.25;;;15.70;39.70;;;;;;4975928;28;20218;-82
2023/12/05 02:43:04;;;;;;;2.58;2.38;;;15.60;39.60;;;;;;4976501;28;20202;-82
2023/12/05 02:45:32;;;;;;;2.75;2.55;;;15.60;39.60;;;;;;4992093;28;20646;-82
2023/12/05 02:47:59;;;;;;;2.78;2.58;;;15.60;39.60;;;;;;4979426;28;20245;-82
2023/12/05 02:50:26;;;;;;;2.70;2.50;;;15.60;39.70;;;;;;4993687;28;20289;-82
2023/12/05 02:52:54;;;;;;;2.10;2.00;;;15.60;39.60;;;;;;4977675;28;20593;-82
2023/12/05 02:55:20;;;;;;;2.60;2.40;;;15.60;39.70;;;;;;4979735;28;20679;-82
2023/12/05 02:57:47;;;;;;;2.50;2.30;;;15.60;39.60;;;;;;4963322;28;20204;-82
2023/12/05 03:00:15;;;;;;;2.67;2.47;;;15.60;39.60;;;;;;4980305;28;20224;-82
2023/12/05 03:02:44;;;;;;;2.72;2.53;;;15.60;39.70;;;;;;4979704;28;20236;-82
2023/12/05 03:05:11;;;;;;;2.50;2.30;;;15.60;39.70;;;;;;4997526;28;20202;-82
2023/12/05 03:07:38;;;;;;;2.58;2.38;;;15.60;39.80;;;;;;4980589;28;20233;-82
2023/12/05 03:10:06;;;;;;;2.38;2.20;;;15.60;39.80;;;;;;4979929;28;20197;-82
2023/12/05 03:12:33;;;;;;;2.42;2.22;;;15.60;39.80;;;;;;4980495;28;20225;-82
2023/12/05 03:15:01;;;;;;;2.33;2.13;;;15.60;39.80;;;;;;4997149;28;20743;-82
2023/12/05 03:17:27;;;;;;;2.40;2.20;;;15.60;39.70;;;;;;4997302;28;20316;-82
2023/12/05 03:19:55;;;;;;;2.42;2.22;;;15.60;39.70;;;;;;4981907;28;20229;-82
2023/12/05 03:22:22;;;;;;;2.33;2.17;;;15.60;39.80;;;;;;4981880;28;20214;-82
2023/12/05 03:24:50;;;;;;;2.30;2.20;;;15.50;39.80;;;;;;4982898;28;20676;-82
2023/12/05 03:27:17;;;;;;;2.22;2.05;;;15.50;39.90;;;;;;4980278;28;20249;-82
2023/12/05 03:29:44;;;;;;;2.25;2.05;;;15.50;39.80;;;;;;4981523;28;20256;-82
2023/12/05 03:32:12;;;;;;;2.10;2.00;;;15.50;39.90;;;;;;4981564;28;20249;-82
2023/12/05 03:34:40;;;;;;;2.47;2.28;;;15.50;39.80;;;;;;4997417;28;20229;-82
2023/12/05 03:37:08;;;;;;;2.20;2.10;;;15.50;39.80;;;;;;4981479;28;20222;-82
2023/12/05 03:39:35;;;;;;;2.28;2.08;;;15.50;39.80;;;;;;4982134;28;20202;-82
2023/12/05 03:42:02;;;;;;;2.17;2.00;;;15.50;39.80;;;;;;4980832;28;20593;-82
2023/12/05 03:44:29;;;;;;;2.33;1.92;;;15.50;39.80;;;;;;4981247;28;20264;-82
2023/12/05 03:46:56;;;;;;;2.13;2.03;;;15.60;39.80;;;;;;4965849;28;20692;-82
2023/12/05 03:49:23;;;;;;;2.13;2.03;;;15.60;39.90;;;;;;4998134;28;20234;-82
2023/12/05 03:51:51;;;;;;;2.10;2.00;;;15.50;39.70;;;;;;4981292;28;20198;-82
2023/12/05 03:54:19;;;;;;;1.90;1.80;;;15.50;39.70;;;;;;4981333;28;20198;-83
2023/12/05 03:56:46;;;;;;;2.30;2.10;;;15.60;39.70;;;;;;4979742;28;20221;-82
2023/12/05 03:59:13;;;;;;;2.20;2.10;;;15.60;39.60;;;;;;4977588;28;20194;-83
2023/12/05 04:01:40;;;;;;;2.00;1.90;;;15.60;39.60;;;;;;4974646;28;20222;-83
2023/12/05 04:04:07;;;;;;;2.38;2.20;;;15.60;39.60;;;;;;4974317;28;20206;-82
2023/12/05 04:06:34;;;;;;;2.10;2.00;;;15.60;39.60;;;;;;4975052;28;20646;-82
2023/12/05 04:09:03;;;;;;;2.05;1.92;;;15.60;39.60;;;;;;4958704;28;20205;-82
2023/12/05 04:11:33;;;;;;;2.05;1.95;;;15.60;39.50;;;;;;4974470;28;20280;-82
2023/12/05 04:14:01;;;;;;;2.03;1.92;;;15.60;39.50;;;;;;4990599;28;20253;-82
2023/12/05 04:16:27;;;;;;;2.00;1.90;;;15.50;39.50;;;;;;4974854;28;20297;-82
2023/12/05 04:18:55;;;;;;;2.03;1.92;;;15.50;39.50;;;;;;4975650;28;20198;-82
2023/12/05 04:21:22;;;;;;;1.90;1.80;;;15.60;39.60;;;;;;4974169;28;20707;-82
2023/12/05 04:23:49;;;;;;;2.10;1.90;;;15.50;39.60;;;;;;4973940;28;20212;-82
2023/12/05 04:26:18;;;;;;;1.80;1.70;;;15.50;39.50;;;;;;4973855;28;20264;-82
2023/12/05 04:28:46;;;;;;;2.00;1.90;;;15.50;39.60;;;;;;4974031;28;20198;-82
2023/12/05 04:31:13;;;;;;;1.75;1.65;;;15.40;39.50;;;;;;4973710;28;20190;-82
2023/12/05 04:33:40;;;;;;;1.95;1.85;;;15.40;39.50;;;;;;4974228;28;20209;-82
2023/12/05 04:36:08;;;;;;;2.05;1.95;;;15.40;39.60;;;;;;4973692;28;20218;-83
2023/12/05 04:38:36;;;;;;;1.70;1.60;;;15.40;39.80;;;;;;4974707;28;20289;-82
2023/12/05 04:41:03;;;;;;;1.80;1.70;;;15.30;39.80;;;;;;4977279;28;20218;-82
2023/12/05 04:43:31;;;;;;;1.80;1.70;;;15.30;39.80;;;;;;4977779;28;20206;-82
2023/12/05 04:45:59;;;;;;;1.90;1.80;;;15.30;39.90;;;;;;4993335;28;20309;-82
2023/12/05 04:48:25;;;;;;;1.75;1.65;;;15.20;39.80;;;;;;4977273;28;20720;-82
2023/12/05 04:50:52;;;;;;;1.70;1.60;;;15.30;40.00;;;;;;4977384;28;20190;-82
2023/12/05 04:53:19;;;;;;;1.90;1.80;;;15.40;39.90;;;;;;4977280;28;20206;-82
2023/12/05 04:55:46;;;;;;;1.90;1.80;;;15.30;39.80;;;;;;4993426;28;20226;-82
2023/12/05 04:58:14;;;;;;;1.65;1.50;;;15.40;39.80;;;;;;4987750;28;20598;-82
2023/12/05 05:00:40;;;;;;;1.70;1.60;;;15.40;39.90;;;;;;4979600;28;20218;-82
2023/12/05 05:03:09;;;;;;;1.70;1.60;;;15.40;39.90;;;;;;4977054;28;20202;-82
2023/12/05 05:05:36;;;;;;;1.88;1.77;;;15.40;39.80;;;;;;4995376;28;20201;-82
2023/12/05 05:08:03;;;;;;;1.60;1.50;;;15.40;39.90;;;;;;4976876;28;20205;-82
2023/12/05 05:10:30;;;;;;;1.60;1.50;;;15.40;39.90;;;;;;4961984;28;20194;-82
2023/12/05 05:12:57;;;;;;;1.70;1.60;;;15.40;39.90;;;;;;4976610;28;20210;-82
2023/12/05 05:15:25;;;;;;;1.95;1.85;;;15.40;39.80;;;;;;4976669;28;20217;-82
2023/12/05 05:17:52;;;;;;;1.63;1.52;;;15.40;39.80;;;;;;5003846;28;20230;-82
2023/12/05 05:20:20;;;;;;;1.70;1.60;;;15.40;39.80;;;;;;4995337;28;20273;-82
2023/12/05 05:22:48;;;;;;;1.60;1.50;;;15.40;39.70;;;;;;5005463;28;20321;-82
2023/12/05 05:25:16;;;;;;;1.65;1.55;;;15.40;39.70;;;;;;4976913;28;20249;-82
2023/12/05 05:27:43;;;;;;;1.80;1.70;;;15.40;39.80;;;;;;4977251;28;20748;-82
2023/12/05 05:30:11;;;;;;;1.83;1.73;;;15.40;39.80;;;;;;4977531;28;20337;-83
2023/12/05 05:32:38;;;;;;;1.63;1.52;;;15.40;39.80;;;;;;4992904;28;20253;-83
2023/12/05 05:35:06;;;;;;;1.55;1.45;;;15.50;39.90;;;;;;4978203;28;20622;-82
2023/12/05 05:37:34;;;;;;;1.60;1.50;;;15.50;39.80;;;;;;4977154;28;20257;-82
2023/12/05 05:40:01;;;;;;;1.65;1.55;;;15.40;39.60;;;;;;4977001;28;20256;-82
2023/12/05 05:42:28;;;;;;;1.70;1.60;;;15.40;39.70;;;;;;4976808;28;20640;-82
2023/12/05 05:44:55;;;;;;;1.70;1.60;;;15.40;39.70;;;;;;4976773;28;20202;-82
2023/12/05 05:47:22;;;;;;;1.60;1.50;;;15.40;39.80;;;;;;4976511;28;20229;-82
2023/12/05 05:49:50;;;;;;;1.50;1.40;;;15.40;39.70;;;;;;4976397;28;20233;-82
2023/12/05 05:52:17;;;;;;;1.50;1.40;;;15.50;39.80;;;;;;4959875;28;20198;-82
2023/12/05 05:54:48;;;;;;;1.52;1.42;;;15.40;39.70;;;;;;4977217;28;20233;-82
2023/12/05 05:57:15;;;;;;;1.55;1.45;;;15.40;39.70;;;;;;4976970;28;20226;-82
2023/12/05 05:59:43;;;;;;;1.45;1.35;;;15.40;39.70;;;;;;4979455;28;20696;-82
2023/12/05 06:02:12;;;;;;;1.60;1.50;;;15.50;39.80;;;;;;4980229;28;20236;-83
2023/12/05 06:04:40;;;;;;;1.50;1.40;;;15.50;39.80;;;;;;4994196;28;20205;-82
2023/12/05 06:07:07;;;;;;;1.60;1.50;;;15.40;39.60;;;;;;4961296;28;20236;-82
2023/12/05 06:09:35;;;;;;;1.60;1.50;;;15.50;39.70;;;;;;4976211;28;20563;-82
2023/12/05 06:12:05;;;;;;;1.70;1.60;;;15.50;39.70;;;;;;4960102;28;20212;-82
2023/12/05 06:14:32;;;;;;;1.50;1.40;;;15.50;39.70;;;;;;4992317;28;20230;-82
2023/12/05 06:16:59;;;;;;;1.58;1.48;;;15.50;39.80;;;;;;4978468;28;20284;-82
2023/12/05 06:19:26;;;;;;;1.73;1.60;;;15.50;39.80;;;;;;4975999;28;20258;-82
2023/12/05 06:21:53;;;;;;;1.50;1.40;;;15.40;39.60;;;;;;4979307;28;20711;-83
2023/12/05 06:24:20;;;;;;;1.58;1.48;;;15.40;39.70;;;;;;4975950;28;20194;-82
2023/12/05 06:26:47;;;;;;;1.40;1.27;;;15.50;39.80;;;;;;4975564;28;20248;-82
2023/12/05 06:29:16;;;;;;;1.50;1.40;;;15.40;39.80;;;;;;4975923;28;20202;-82
2023/12/05 06:31:44;;;;;;;1.50;1.40;;;15.40;39.80;;;;;;4975866;28;20195;-82
2023/12/05 06:34:11;;;;;;;1.63;1.50;;;15.40;39.70;;;;;;4979107;28;20209;-83
2023/12/05 06:36:38;;;;;;;1.50;1.40;;;15.40;39.70;;;;;;4977328;28;20225;-84
2023/12/05 06:39:08;;;;;;;1.42;1.33;;;15.50;39.80;;;;;;4960189;28;20194;-84
2023/12/05 06:41:35;;;;;;;1.50;1.40;;;15.50;39.90;;;;;;4975130;28;20229;-83
2023/12/05 06:44:02;;;;;;;1.30;1.20;;;15.50;39.80;;;;;;4975874;28;20190;-84
2023/12/05 06:46:31;;;;;;;1.45;1.38;;;15.40;39.70;;;;;;4975785;28;20632;-84
2023/12/05 06:48:58;;;;;;;1.40;1.30;;;15.40;39.80;;;;;;4975855;28;20676;-84
2023/12/05 06:51:25;;;;;;;1.48;1.38;;;15.40;39.80;;;;;;4975466;28;20198;-83
2023/12/05 06:53:52;;;;;;;1.48;1.38;;;15.40;39.80;;;;;;4975274;28;20198;-83
2023/12/05 06:56:19;;;;;;;1.48;1.38;;;15.40;39.80;;;;;;4991446;28;20276;-84
2023/12/05 06:58:47;;;;;;;1.38;1.27;;;15.40;39.80;;;;;;4976712;28;20202;-84
2023/12/05 07:01:13;;;;;;;1.60;1.50;;;15.50;39.90;;;;;;4976314;28;20264;-84
2023/12/05 07:03:42;;;;;;;1.50;1.40;;;15.40;39.80;;;;;;4975798;28;20202;-84
2023/12/05 07:06:09;;;;;;;1.35;1.25;;;15.40;39.80;;;;;;4991181;28;20217;-83
2023/12/05 07:08:36;;;;;;;1.67;1.58;;;15.30;39.80;;;;;;4975298;28;20229;-83
2023/12/05 07:11:03;;;;;;;1.88;1.40;;;15.40;40.00;;;;;;4975183;28;20532;-83
2023/12/05 07:13:31;;;;;;;1.30;1.30;;;15.30;40.00;;;;;;5020734;23;20233;-82
2023/12/05 07:15:58;;;;;;;1.60;1.50;;;15.40;40.10;;;;;;4989033;28;20222;-82
2023/12/05 07:18:25;;;;;;;1.50;1.40;;;15.40;40.00;;;;;;4974632;28;20622;-82
2023/12/05 07:20:53;;;;;;;1.45;1.35;;;15.40;40.00;;;;;;4974507;28;20206;-82
2023/12/05 07:23:20;;;;;;;1.45;1.35;;;15.30;39.80;;;;;;4974874;28;20279;-81
2023/12/05 07:25:47;;;;;;;1.58;1.48;;;15.30;39.90;;;;;;4975928;28;20218;-82
2023/12/05 07:28:14;;;;;;;1.77;1.10;;;15.30;40.00;;;;;;4976339;28;20664;-82
2023/12/05 07:30:41;;;;;;;1.45;1.30;;;15.30;39.90;;;;;;4975987;28;20206;-82
2023/12/05 07:33:08;;;;;;;2.03;1.20;;;15.40;40.00;;;;;;4976770;28;20222;-82
2023/12/05 07:35:36;;;;;;;1.42;1.33;;;15.30;39.90;;;;;;4975847;28;20334;-82
2023/12/05 07:38:04;;;;;;;1.50;1.40;;;15.40;40.00;;;;;;4975908;28;20197;-82
2023/12/05 07:40:32;;;;;;;1.70;1.60;;;15.30;39.90;;;;;;4960163;28;20205;-82
2023/12/05 07:42:59;;;;;;;1.55;1.45;;;15.30;40.00;;;;;;4975377;28;20224;-82
2023/12/05 07:45:26;;;;;;;2.28;1.73;;;15.30;40.00;;;;;;4975680;28;20202;-82
2023/12/05 07:47:52;;;;;;;1.50;1.40;;;15.30;40.00;;;;;;4975599;28;20768;-82
2023/12/05 07:50:20;;;;;;;1.63;1.52;;;15.40;40.10;;;;;;4975597;28;20221;-82
2023/12/05 07:52:49;;;;;;;1.90;1.80;;;15.40;40.00;;;;;;4976122;28;20198;-82
2023/12/05 07:55:18;;;;;;;1.95;1.85;;;15.40;40.00;;;;;;4975714;28;20214;-82
2023/12/05 07:57:45;;;;;;;2.88;2.67;;;15.40;39.90;;;;;;4975438;28;20205;-82
2023/12/05 08:00:16;;;;;;;2.63;2.33;;;15.40;39.80;;;;;;4975514;28;20563;-82
2023/12/05 08:02:43;;;;;;;2.55;2.35;;;15.50;40.00;;;;;;4975011;28;20217;-82
2023/12/05 08:05:11;;;;;;;2.40;2.20;;;15.40;39.80;;;;;;4975182;28;20202;-81
2023/12/05 08:07:39;;;;;;;1.88;1.77;;;15.50;39.90;;;;;;4959146;28;20329;-82
2023/12/05 08:10:07;;;;;;;2.00;1.90;;;15.50;39.90;;;;;;4976341;28;20251;-82
2023/12/05 08:12:35;;;;;;;2.00;1.80;;;15.50;39.90;;;;;;4975142;28;20241;-82
2023/12/05 08:15:04;;;;;;;1.70;1.60;;;15.50;39.90;;;;;;4977891;28;20293;-82
2023/12/05 08:17:31;;;;;;;1.60;1.50;;;15.60;39.90;;;;;;4977578;28;20760;-82
2023/12/05 08:19:58;;;;;;;1.67;1.58;;;15.50;39.80;;;;;;4977763;28;20202;-82
2023/12/05 08:22:25;;;;;;;2.00;1.90;;;15.50;39.80;;;;;;4977723;28;20233;-82
2023/12/05 08:24:54;;;;;;;1.70;1.60;;;15.60;39.80;;;;;;4978031;28;20567;-82
2023/12/05 08:27:22;;;;;;;1.58;1.48;;;15.60;39.80;;;;;;4978075;28;20241;-82
2023/12/05 08:29:50;;;;;;;1.63;1.52;;;15.60;39.80;;;;;;4962344;28;20280;-82
2023/12/05 08:32:17;;;;;;;2.15;1.63;;;15.60;39.60;;;;;;4978513;28;20198;-81
2023/12/05 08:34:44;;;;;;;1.90;1.80;;;15.70;39.70;;;;;;4980056;28;20645;-81
2023/12/05 08:37:11;;;;;;;1.88;1.77;;;15.60;39.60;;;;;;4962080;28;20214;-81
2023/12/05 08:39:39;;;;;;;1.95;1.77;;;15.60;39.60;;;;;;4978487;28;20202;-82
2023/12/05 08:42:05;;;;;;;1.60;1.50;;;15.70;39.70;;;;;;4978355;28;20261;-81
2023/12/05 08:44:33;;;;;;;1.75;1.65;;;15.70;39.60;;;;;;4978623;28;20210;-82
2023/12/05 08:47:01;;;;;;;1.90;1.80;;;15.70;39.60;;;;;;4978272;28;20214;-81
2023/12/05 08:49:29;;;;;;;1.90;1.80;;;15.70;39.70;;;;;;4962536;28;20723;-81
2023/12/05 08:51:56;;;;;;;1.60;1.50;;;15.70;39.80;;;;;;4978443;28;20297;-81
2023/12/05 08:54:23;;;;;;;2.13;1.92;;;15.70;39.70;;;;;;4962177;28;20206;-81
2023/12/05 08:56:50;;;;;;;1.90;1.80;;;15.70;39.70;;;;;;4978101;28;20222;-81
2023/12/05 08:59:17;;;;;;;2.00;1.90;;;15.70;39.70;;;;;;4962059;28;20208;-81
2023/12/05 09:01:46;;;;;;;2.38;2.17;;;15.70;39.60;;;;;;4978083;28;20213;-81
2023/12/05 09:04:14;;;;;;;1.90;1.80;;;15.80;39.60;;;;;;4978040;28;20230;-81
2023/12/05 09:06:42;;;;;;;1.95;1.85;;;15.70;39.60;;;;;;4978090;28;20290;-81
2023/12/05 09:09:09;;;;;;;2.08;1.90;;;15.80;39.70;;;;;;4962167;28;20202;-81
2023/12/05 09:11:37;;;;;;;1.80;1.70;;;15.80;39.70;;;;;;4977849;28;20230;-81
2023/12/05 09:14:05;;;;;;;1.90;1.80;;;15.80;39.60;;;;;;4961592;28;20206;-82
2023/12/05 09:16:32;;;;;;;2.08;1.67;;;15.80;39.60;;;;;;4960821;28;20253;-82
2023/12/05 09:18:59;;;;;;;1.73;1.55;;;15.80;39.60;;;;;;4993094;28;20202;-81
2023/12/05 09:21:27;;;;;;;1.70;1.60;;;15.80;39.60;;;;;;4977173;28;20194;-81
2023/12/05 09:23:55;;;;;;;1.60;1.50;;;15.80;39.60;;;;;;4977035;28;20228;-81
2023/12/05 09:26:22;;;;;;;1.50;1.40;;;15.80;39.70;;;;;;4976094;28;20298;-81
2023/12/05 09:28:49;;;;;;;1.60;1.50;;;15.90;39.80;;;;;;4976886;28;20293;-81
2023/12/05 09:31:16;;;;;;;1.80;1.70;;;15.80;39.70;;;;;;4977036;28;20190;-81
2023/12/05 09:33:43;;;;;;;1.30;1.20;;;15.90;39.80;;;;;;4977550;28;20190;-82
2023/12/05 09:36:10;;;;;;;1.50;1.40;;;15.90;39.70;;;;;;4976728;28;20228;-81
2023/12/05 09:38:39;;;;;;;1.60;1.50;;;15.90;39.80;;;;;;4976503;28;20194;-82
2023/12/05 09:41:28;;;;;;;1.90;1.73;;;15.90;39.70;;;;;;4977834;28;20194;-82
2023/12/05 09:43:55;;;;;;;1.80;1.70;;;15.90;39.70;;;;;;4976175;28;20226;-81
2023/12/05 09:46:22;;;;;;;1.45;1.35;;;15.90;39.80;;;;;;4977507;28;20210;-81
2023/12/05 09:48:50;;;;;;;1.50;1.40;;;15.90;39.90;;;;;;4993059;28;20182;-81
2023/12/05 09:51:17;;;;;;;1.50;1.40;;;15.90;39.90;;;;;;4990154;28;20183;-81
2023/12/05 09:53:46;;;;;;;1.50;1.40;;;15.80;39.80;;;;;;4977118;28;20241;-79
2023/12/05 09:56:13;;;;;;;1.65;1.55;;;15.90;40.00;;;;;;4975720;28;20218;-79
2023/12/05 09:58:42;;;;;;;1.60;1.50;;;15.90;39.90;;;;;;4975620;28;20661;-79
2023/12/05 10:01:09;;;;;;;1.50;1.40;;;15.90;39.90;;;;;;4975506;28;20229;-79
2023/12/05 10:03:36;;;;;;;1.77;1.67;;;15.90;40.00;;;;;;4976156;28;20229;-79
2023/12/05 10:06:04;;;;;;;1.50;1.38;;;15.90;39.90;;;;;;4975634;28;20308;-79
2023/12/05 10:08:31;;;;;;;1.48;1.38;;;16.00;39.90;;;;;;4975432;28;20213;-79
2023/12/05 10:11:00;;;;;;;1.55;1.45;;;16.00;39.90;;;;;;4975412;28;20198;-79
2023/12/05 10:13:27;;;;;;;1.60;1.50;;;16.00;40.00;;;;;;4975882;28;20304;-79
2023/12/05 10:15:54;;;;;;;1.60;1.50;;;16.00;39.90;;;;;;4975551;28;20218;-79
2023/12/05 10:18:21;;;;;;;1.42;1.30;;;16.00;40.00;;;;;;4975251;28;20234;-79
2023/12/05 10:20:48;;;;;;;1.50;1.40;;;16.00;39.90;;;;;;4975432;28;20603;-79
2023/12/05 10:23:15;;;;;;;1.33;1.23;;;16.00;40.00;;;;;;4975171;28;20269;-79
2023/12/05 10:25:43;;;;;;;1.45;1.35;;;16.00;40.00;;;;;;4976075;28;20689;-80
2023/12/05 10:28:12;;;;;;;1.50;1.40;;;16.00;40.00;;;;;;4961915;28;20229;-80
2023/12/05 10:30:39;;;;;;;1.58;1.40;;;16.10;40.10;;;;;;4977284;28;20209;-80
2023/12/05 10:33:13;;;;;;;1.42;1.33;;;16.10;40.10;;;;;;4977661;28;20198;-80
2023/12/05 10:35:41;;;;;;;2.40;1.58;;;16.10;40.20;;;;;;4961369;28;20216;-80
2023/12/05 10:38:08;;;;;;;1.73;1.63;;;16.10;40.20;;;;;;4976873;28;20208;-80
2023/12/05 10:40:50;;;;;;;1.63;1.52;;;16.10;40.20;;;;;;4976944;28;20210;-80
2023/12/05 10:43:19;;;;;;;1.40;1.30;;;16.20;40.20;;;;;;4977135;28;20317;-80
2023/12/05 10:45:46;;;;;;;1.40;1.30;;;16.20;40.00;;;;;;4976416;28;20218;-80
2023/12/05 10:48:13;;;;;;;1.40;1.30;;;16.20;40.10;;;;;;4976285;28;20202;-80
2023/12/05 10:50:41;;;;;;;1.45;1.27;;;16.20;40.10;;;;;;4976798;28;20210;-80
2023/12/05 10:53:08;;;;;;;1.40;1.30;;;16.20;40.70;;;;;;4976137;28;20214;-80
2023/12/05 10:55:35;;;;;;;1.40;1.30;;;16.20;40.10;;;;;;4975535;28;20260;-80
2023/12/05 10:58:02;;;;;;;1.40;1.30;;;16.20;40.10;;;;;;4976136;28;20201;-80
2023/12/05 11:00:30;;;;;;;1.30;1.30;;;16.20;40.10;;;;;;4975564;28;20208;-81
2023/12/05 11:02:57;;;;;;;1.13;1.13;;;16.20;40.10;;;;;;4975692;28;20620;-80
2023/12/05 11:05:25;;;;;;;1.40;1.27;;;16.30;40.20;;;;;;4975145;28;20198;-80
2023/12/05 11:07:53;;;;;;;1.55;1.45;;;16.30;40.20;;;;;;4975587;28;20210;-80
2023/12/05 11:10:20;;;;;;;1.45;1.35;;;16.30;40.20;;;;;;4975415;28;20225;-81
2023/12/05 11:12:50;;;;;;;1.50;1.40;;;16.40;40.30;;;;;;4975131;28;20543;-80
2023/12/05 11:15:19;;;;;;;1.33;1.27;;;16.40;40.20;;;;;;4959110;28;20202;-80
2023/12/05 11:17:50;;;;;;;1.27;1.27;;;16.40;40.20;;;;;;4958729;28;20201;-80
2023/12/05 11:20:23;;;;;;;1.45;1.35;;;16.50;40.10;;;;;;4975152;28;20636;-80
2023/12/05 11:22:56;;;;;;;1.25;1.15;;;16.60;40.10;;;;;;4974586;28;20256;-80
2023/12/05 11:25:34;;;;;;;1.15;1.08;;;16.60;40.00;;;;;;4975158;28;20198;-80
2023/12/05 11:28:13;;;;;;;1.23;1.20;;;16.60;40.00;;;;;;4975051;28;20720;-80
2023/12/05 11:30:57;;;;;;;1.50;1.40;;;16.70;40.60;;;;;;4974786;28;20221;-80
2023/12/05 11:33:34;;;;;;;1.20;1.10;;;16.70;40.00;;;;;;4974455;28;20208;-80
2023/12/05 11:36:05;;;;;;;1.40;1.30;;;16.80;40.10;;;;;;4974663;28;20337;-80
2023/12/05 11:38:33;;;;;;;1.10;1.10;;;16.80;40.10;;;;;;4974713;28;20241;-80
2023/12/05 11:41:12;;;;;;;1.40;1.30;;;16.80;40.10;;;;;;4974743;28;20202;-80
2023/12/05 11:43:40;;;;;;;1.25;1.17;;;16.80;40.20;;;;;;4974105;28;20732;-80
2023/12/05 11:46:08;;;;;;;1.55;1.20;;;16.90;40.30;;;;;;4958407;28;20229;-80
2023/12/05 11:48:36;;;;;;;1.40;1.30;;;16.90;40.30;;;;;;4973783;28;20623;-80
2023/12/05 11:51:03;;;;;;;1.17;1.17;;;16.80;40.30;;;;;;4958463;28;20202;-80
2023/12/05 11:53:30;;;;;;;1.45;1.35;;;16.90;40.50;;;;;;4974627;28;20202;-80
2023/12/05 11:55:58;;;;;;;1.23;1.13;;;16.90;40.60;;;;;;4975592;28;20586;-80
2023/12/05 11:58:28;;;;;;;1.25;1.13;;;16.90;40.60;;;;;;4975791;28;20205;-80
2023/12/05 12:01:03;;;;;;;1.10;1.10;;;16.90;40.70;;;;;;4976540;28;20206;-80
2023/12/05 12:03:45;;;;;;;1.35;1.25;;;16.90;40.70;;;;;;4975704;28;20273;-80
2023/12/05 12:06:12;;;;;;;1.10;1.10;;;16.90;40.80;;;;;;4974911;28;20313;-80
2023/12/05 12:08:39;;;;;;;1.17;1.10;;;16.90;40.80;;;;;;4975008;28;20202;-80
2023/12/05 12:11:06;;;;;;;1.83;1.20;;;16.90;40.80;;;;;;4975517;28;20232;-80
2023/12/05 12:13:34;;;;;;;1.45;1.35;;;16.90;40.80;;;;;;4985950;28;20220;-80
2023/12/05 12:16:01;;;;;;;1.30;1.20;;;17.00;40.90;;;;;;4960142;28;20357;-80
2023/12/05 12:18:28;;;;;;;1.25;1.15;;;17.00;41.00;;;;;;4975469;28;20587;-80
2023/12/05 12:20:57;;;;;;;1.40;1.30;;;17.00;41.00;;;;;;4974744;28;20221;-80
2023/12/05 12:23:24;;;;;;;1.25;1.10;;;17.00;41.00;;;;;;4974801;28;20305;-80
2023/12/05 12:25:53;;;;;;;1.15;1.05;;;17.10;41.10;;;;;;4974853;28;20747;-80
2023/12/05 12:28:25;;;;;;;1.15;1.05;;;17.10;41.10;;;;;;4974893;28;20206;-80
2023/12/05 12:30:53;;;;;;;1.00;1.00;;;17.20;41.20;;;;;;4974644;28;20198;-80
2023/12/05 12:33:22;;;;;;;1.20;1.10;;;17.20;41.30;;;;;;4974317;28;20200;-80
2023/12/05 12:35:49;;;;;;;2.10;1.25;;;17.20;41.90;;;;;;4974032;28;20290;-79
2023/12/05 12:38:18;;;;;;;0.90;0.90;;;17.20;41.30;;;;;;4974512;28;20282;-80
2023/12/05 12:40:45;;;;;;;1.00;1.00;;;17.20;41.30;;;;;;4974420;28;20198;-80
2023/12/05 12:43:14;;;;;;;1.88;1.50;;;17.20;41.30;;;;;;4973843;28;20653;-80
2023/12/05 12:45:41;;;;;;;1.10;1.10;;;17.30;41.30;;;;;;4973938;28;20277;-80
2023/12/05 12:48:08;;;;;;;0.98;0.90;;;17.30;41.20;;;;;;4973915;28;20605;-79
2023/12/05 12:50:35;;;;;;;1.00;1.00;;;17.40;41.20;;;;;;4973661;28;20225;-79
2023/12/05 12:53:02;;;;;;;1.23;1.13;;;17.40;41.20;;;;;;4974345;28;20198;-79
2023/12/05 12:55:31;;;;;;;1.20;1.13;;;17.40;41.10;;;;;;4973862;28;20253;-79
2023/12/05 12:57:58;;;;;;;1.30;1.20;;;17.40;41.40;;;;;;4973707;28;20201;-79